sensor_id;sensor_type;location;lat;lon;timestamp;pressure;altitude;pressure_sealevel;temperature
78225;BMP280;67498;53.650;10.090;2023-08-07T00:01:40;100386.00;;;15.50
78225;BMP280;67498;53.650;10.090;2023-08-07T00:04:05;100379.16;;;15.44
78225;BMP280;67498;53.650;10.090;2023-08-07T00:06:31;100391.44;;;15.47
78225;BMP280;67498;53.650;10.090;2023-08-07T00:08:56;100380.75;;;15.41
78225;BMP280;67498;53.650;10.090;2023-08-07T00:11:21;100378.13;;;15.41
78225;BMP280;67498;53.650;10.090;2023-08-07T00:13:47;100381.50;;;15.42
78225;BMP280;67498;53.650;10.090;2023-08-07T00:16:12;100380.44;;;15.39
78225;BMP280;67498;53.650;10.090;2023-08-07T00:18:37;100380.19;;;15.37
78225;BMP280;67498;53.650;10.090;2023-08-07T00:21:02;100382.06;;;15.36
78225;BMP280;67498;53.650;10.090;2023-08-07T00:23:28;100377.66;;;15.33
78225;BMP280;67498;53.650;10.090;2023-08-07T00:25:53;100380.00;;;15.31
78225;BMP280;67498;53.650;10.090;2023-08-07T00:28:18;100371.25;;;15.25
78225;BMP280;67498;53.650;10.090;2023-08-07T00:30:43;100368.44;;;15.29
78225;BMP280;67498;53.650;10.090;2023-08-07T00:33:09;100371.56;;;15.27
78225;BMP280;67498;53.650;10.090;2023-08-07T00:35:34;100366.81;;;15.22
78225;BMP280;67498;53.650;10.090;2023-08-07T00:37:59;100360.13;;;15.21
78225;BMP280;67498;53.650;10.090;2023-08-07T00:40:25;100372.41;;;15.24
78225;BMP280;67498;53.650;10.090;2023-08-07T00:42:50;100357.06;;;15.13
78225;BMP280;67498;53.650;10.090;2023-08-07T00:45:15;100372.38;;;15.15
78225;BMP280;67498;53.650;10.090;2023-08-07T00:47:42;100368.88;;;15.18
78225;BMP280;67498;53.650;10.090;2023-08-07T00:50:08;100359.38;;;15.11
78225;BMP280;67498;53.650;10.090;2023-08-07T00:52:34;100374.28;;;15.14
78225;BMP280;67498;53.650;10.090;2023-08-07T00:54:59;100364.47;;;15.06
78225;BMP280;67498;53.650;10.090;2023-08-07T00:57:25;100367.38;;;15.08
78225;BMP280;67498;53.650;10.090;2023-08-07T00:59:50;100365.94;;;15.07
78225;BMP280;67498;53.650;10.090;2023-08-07T01:02:16;100361.66;;;15.00
78225;BMP280;67498;53.650;10.090;2023-08-07T01:04:42;100361.66;;;15.00
78225;BMP280;67498;53.650;10.090;2023-08-07T01:07:07;100370.16;;;15.04
78225;BMP280;67498;53.650;10.090;2023-08-07T01:09:33;100361.66;;;15.00
78225;BMP280;67498;53.650;10.090;2023-08-07T01:17:16;100363.41;;;14.94
78225;BMP280;67498;53.650;10.090;2023-08-07T01:19:44;100352.72;;;14.88
78225;BMP280;67498;53.650;10.090;2023-08-07T01:22:11;100357.97;;;14.88
78225;BMP280;67498;53.650;10.090;2023-08-07T01:24:40;100356.97;;;14.86
78225;BMP280;67498;53.650;10.090;2023-08-07T01:27:35;100356.66;;;14.84
78225;BMP280;67498;53.650;10.090;2023-08-07T01:33:04;100344.81;;;14.79
78225;BMP280;67498;53.650;10.090;2023-08-07T01:35:41;100334.88;;;14.74
78225;BMP280;67498;53.650;10.090;2023-08-07T01:38:08;100344.78;;;14.70
78225;BMP280;67498;53.650;10.090;2023-08-07T01:40:34;100337.34;;;14.69
78225;BMP280;67498;53.650;10.090;2023-08-07T01:43:01;100338.38;;;14.71
78225;BMP280;67498;53.650;10.090;2023-08-07T01:45:28;100334.72;;;14.69
78225;BMP280;67498;53.650;10.090;2023-08-07T01:47:54;100333.69;;;14.66
78225;BMP280;67498;53.650;10.090;2023-08-07T01:50:20;100336.63;;;14.68
78225;BMP280;67498;53.650;10.090;2023-08-07T01:52:46;100336.56;;;14.59
78225;BMP280;67498;53.650;10.090;2023-08-07T01:55:15;100328.81;;;14.55
78225;BMP280;67498;53.650;10.090;2023-08-07T01:57:40;100340.50;;;14.54
78225;BMP280;67498;53.650;10.090;2023-08-07T02:00:06;100335.84;;;14.58
78225;BMP280;67498;53.650;10.090;2023-08-07T02:02:32;100338.28;;;14.53
78225;BMP280;67498;53.650;10.090;2023-08-07T02:04:57;100337.28;;;14.50
78225;BMP280;67498;53.650;10.090;2023-08-07T02:07:22;100346.16;;;14.53
78225;BMP280;67498;53.650;10.090;2023-08-07T02:09:47;100345.03;;;14.54
78225;BMP280;67498;53.650;10.090;2023-08-07T02:12:13;100347.78;;;14.50
78225;BMP280;67498;53.650;10.090;2023-08-07T02:14:38;100343.25;;;14.51
78225;BMP280;67498;53.650;10.090;2023-08-07T02:17:03;100340.03;;;14.47
78225;BMP280;67498;53.650;10.090;2023-08-07T02:19:29;100338.84;;;14.48
78225;BMP280;67498;53.650;10.090;2023-08-07T02:21:54;100330.09;;;14.41
78225;BMP280;67498;53.650;10.090;2023-08-07T02:24:19;100331.94;;;14.41
78225;BMP280;67498;53.650;10.090;2023-08-07T02:26:45;100328.31;;;14.38
78225;BMP280;67498;53.650;10.090;2023-08-07T02:29:10;100326.13;;;14.37
78225;BMP280;67498;53.650;10.090;2023-08-07T02:31:35;100329.91;;;14.36
78225;BMP280;67498;53.650;10.090;2023-08-07T02:34:01;100319.53;;;14.32
78225;BMP280;67498;53.650;10.090;2023-08-07T02:36:26;100328.31;;;14.38
78225;BMP280;67498;53.650;10.090;2023-08-07T02:38:51;100329.47;;;14.37
78225;BMP280;67498;53.650;10.090;2023-08-07T02:41:17;100317.31;;;14.31
78225;BMP280;67498;53.650;10.090;2023-08-07T02:43:42;100326.13;;;14.37
78225;BMP280;67498;53.650;10.090;2023-08-07T02:46:08;100321.13;;;14.30
78225;BMP280;67498;53.650;10.090;2023-08-07T02:48:33;100332.53;;;14.36
78225;BMP280;67498;53.650;10.090;2023-08-07T02:50:58;100342.31;;;14.35
78225;BMP280;67498;53.650;10.090;2023-08-07T02:53:23;100344.59;;;14.33
78225;BMP280;67498;53.650;10.090;2023-08-07T02:55:49;100339.34;;;14.33
78225;BMP280;67498;53.650;10.090;2023-08-07T02:58:14;100337.94;;;14.32
78225;BMP280;67498;53.650;10.090;2023-08-07T03:00:39;100341.97;;;14.33
78225;BMP280;67498;53.650;10.090;2023-08-07T03:03:04;100328.44;;;14.35
78225;BMP280;67498;53.650;10.090;2023-08-07T03:05:30;100326.69;;;14.32
78225;BMP280;67498;53.650;10.090;2023-08-07T03:07:55;100334.28;;;14.39
78225;BMP280;67498;53.650;10.090;2023-08-07T03:10:20;100333.25;;;14.36
78225;BMP280;67498;53.650;10.090;2023-08-07T03:12:45;100334.16;;;14.43
78225;BMP280;67498;53.650;10.090;2023-08-07T03:15:11;100334.03;;;14.46
78225;BMP280;67498;53.650;10.090;2023-08-07T03:17:36;100325.13;;;14.44
78225;BMP280;67498;53.650;10.090;2023-08-07T03:20:02;100330.56;;;14.49
78225;BMP280;67498;53.650;10.090;2023-08-07T03:22:28;100323.97;;;14.45
78225;BMP280;67498;53.650;10.090;2023-08-07T03:24:54;100336.94;;;14.48
78225;BMP280;67498;53.650;10.090;2023-08-07T03:27:19;100330.13;;;14.51
78225;BMP280;67498;53.650;10.090;2023-08-07T03:29:44;100331.56;;;14.52
78225;BMP280;67498;53.650;10.090;2023-08-07T03:32:10;100327.38;;;14.54
78225;BMP280;67498;53.650;10.090;2023-08-07T03:34:35;100329.00;;;14.61
78225;BMP280;67498;53.650;10.090;2023-08-07T03:37:01;100322.53;;;14.53
78225;BMP280;67498;53.650;10.090;2023-08-07T03:39:26;100331.19;;;14.62
78225;BMP280;67498;53.650;10.090;2023-08-07T03:41:51;100333.38;;;14.64
78225;BMP280;67498;53.650;10.090;2023-08-07T03:44:16;100329.16;;;14.66
78225;BMP280;67498;53.650;10.090;2023-08-07T03:46:42;100328.44;;;14.66
78225;BMP280;67498;53.650;10.090;2023-08-07T03:49:07;100335.16;;;14.67
78225;BMP280;67498;53.650;10.090;2023-08-07T03:51:32;100313.34;;;14.57
78225;BMP280;67498;53.650;10.090;2023-08-07T03:53:58;100325.81;;;14.66
78225;BMP280;67498;53.650;10.090;2023-08-07T03:56:23;100318.50;;;14.61
78225;BMP280;67498;53.650;10.090;2023-08-07T03:58:48;100324.31;;;14.65
78225;BMP280;67498;53.650;10.090;2023-08-07T04:01:15;100319.81;;;14.65
78225;BMP280;67498;53.650;10.090;2023-08-07T04:03:41;100317.91;;;14.66
78225;BMP280;67498;53.650;10.090;2023-08-07T04:06:06;100320.28;;;14.73
78225;BMP280;67498;53.650;10.090;2023-08-07T04:08:31;100317.03;;;14.69
78225;BMP280;67498;53.650;10.090;2023-08-07T04:11:01;100318.66;;;14.76
78225;BMP280;67498;53.650;10.090;2023-08-07T04:13:27;100323.94;;;14.76
78225;BMP280;67498;53.650;10.090;2023-08-07T04:15:53;100319.41;;;14.76
78225;BMP280;67498;53.650;10.090;2023-08-07T04:18:18;100321.59;;;14.78
78225;BMP280;67498;53.650;10.090;2023-08-07T04:20:52;100318.81;;;14.81
78225;BMP280;67498;53.650;10.090;2023-08-07T04:23:17;100310.66;;;14.79
78225;BMP280;67498;53.650;10.090;2023-08-07T04:25:43;100310.25;;;14.81
78225;BMP280;67498;53.650;10.090;2023-08-07T04:28:08;100311.41;;;14.80
78225;BMP280;67498;53.650;10.090;2023-08-07T04:30:34;100313.00;;;14.86
78225;BMP280;67498;53.650;10.090;2023-08-07T04:32:59;100316.50;;;14.83
78225;BMP280;67498;53.650;10.090;2023-08-07T04:35:24;100328.66;;;14.90
78225;BMP280;67498;53.650;10.090;2023-08-07T04:37:49;100328.50;;;14.94
78225;BMP280;67498;53.650;10.090;2023-08-07T04:40:15;100327.34;;;14.95
78225;BMP280;67498;53.650;10.090;2023-08-07T04:42:40;100326.63;;;14.94
78225;BMP280;67498;53.650;10.090;2023-08-07T04:45:05;100327.66;;;14.97
78225;BMP280;67498;53.650;10.090;2023-08-07T04:47:31;100322.81;;;15.04
78225;BMP280;67498;53.650;10.090;2023-08-07T04:49:56;100323.28;;;15.03
78225;BMP280;67498;53.650;10.090;2023-08-07T04:52:21;100315.09;;;15.10
78225;BMP280;67498;53.650;10.090;2023-08-07T04:54:47;100314.06;;;15.07
78225;BMP280;67498;53.650;10.090;2023-08-07T04:57:12;100316.69;;;15.07
78225;BMP280;67498;53.650;10.090;2023-08-07T04:59:37;100325.81;;;15.15
78225;BMP280;67498;53.650;10.090;2023-08-07T05:02:03;100340.53;;;15.22
78225;BMP280;67498;53.650;10.090;2023-08-07T05:04:28;100328.00;;;15.26
78225;BMP280;67498;53.650;10.090;2023-08-07T05:06:53;100326.84;;;15.27
78225;BMP280;67498;53.650;10.090;2023-08-07T05:09:19;100323.31;;;15.30
78225;BMP280;67498;53.650;10.090;2023-08-07T05:11:44;100320.81;;;15.36
78225;BMP280;67498;53.650;10.090;2023-08-07T05:14:10;100329.91;;;15.44
78225;BMP280;67498;53.650;10.090;2023-08-07T05:16:35;100323.03;;;15.47
78225;BMP280;67498;53.650;10.090;2023-08-07T05:19:00;100314.28;;;15.50
78225;BMP280;67498;53.650;10.090;2023-08-07T05:21:25;100316.72;;;15.53
78225;BMP280;67498;53.650;10.090;2023-08-07T05:23:50;100315.41;;;15.58
78225;BMP280;67498;53.650;10.090;2023-08-07T05:26:20;100316.00;;;15.62
78225;BMP280;67498;53.650;10.090;2023-08-07T05:28:45;100331.34;;;15.73
78225;BMP280;67498;53.650;10.090;2023-08-07T05:31:10;100330.47;;;15.76
78225;BMP280;67498;53.650;10.090;2023-08-07T05:33:35;100332.50;;;15.81
78225;BMP280;67498;53.650;10.090;2023-08-07T05:36:01;100336.44;;;15.85
78225;BMP280;67498;53.650;10.090;2023-08-07T05:38:26;100334.41;;;15.89
78225;BMP280;67498;53.650;10.090;2023-08-07T05:40:52;100336.44;;;15.95
78225;BMP280;67498;53.650;10.090;2023-08-07T05:43:17;100338.91;;;15.98
78225;BMP280;67498;53.650;10.090;2023-08-07T05:45:42;100323.13;;;15.98
78225;BMP280;67498;53.650;10.090;2023-08-07T05:48:10;100324.72;;;16.05
78225;BMP280;67498;53.650;10.090;2023-08-07T05:50:35;100336.53;;;16.19
78225;BMP280;67498;53.650;10.090;2023-08-07T05:53:00;100329.34;;;16.19
78225;BMP280;67498;53.650;10.090;2023-08-07T05:55:25;100338.25;;;16.31
78225;BMP280;67498;53.650;10.090;2023-08-07T05:57:51;100337.94;;;16.29
78225;BMP280;67498;53.650;10.090;2023-08-07T06:00:16;100342.47;;;16.37
78225;BMP280;67498;53.650;10.090;2023-08-07T06:02:44;100339.97;;;16.34
78225;BMP280;67498;53.650;10.090;2023-08-07T06:05:09;100334.56;;;16.37
78225;BMP280;67498;53.650;10.090;2023-08-07T06:07:37;100341.88;;;16.43
78225;BMP280;67498;53.650;10.090;2023-08-07T06:10:03;100332.63;;;16.38
78225;BMP280;67498;53.650;10.090;2023-08-07T06:12:28;100338.31;;;16.46
78225;BMP280;67498;53.650;10.090;2023-08-07T06:14:53;100342.09;;;16.54
78225;BMP280;67498;53.650;10.090;2023-08-07T06:17:19;100326.28;;;16.54
78225;BMP280;67498;53.650;10.090;2023-08-07T06:19:44;100339.41;;;16.63
78225;BMP280;67498;53.650;10.090;2023-08-07T06:22:09;100346.59;;;16.62
78225;BMP280;67498;53.650;10.090;2023-08-07T06:24:34;100345.59;;;16.60
78225;BMP280;67498;53.650;10.090;2023-08-07T06:27:01;100348.94;;;16.60
78225;BMP280;67498;53.650;10.090;2023-08-07T06:29:26;100343.97;;;16.62
78225;BMP280;67498;53.650;10.090;2023-08-07T06:31:52;100344.97;;;16.65
78225;BMP280;67498;53.650;10.090;2023-08-07T06:34:17;100346.19;;;16.55
78225;BMP280;67498;53.650;10.090;2023-08-07T06:36:42;100345.31;;;16.58
78225;BMP280;67498;53.650;10.090;2023-08-07T06:39:08;100341.34;;;16.62
78225;BMP280;67498;53.650;10.090;2023-08-07T06:41:33;100341.28;;;16.72
78225;BMP280;67498;53.650;10.090;2023-08-07T06:43:58;100339.38;;;16.72
78225;BMP280;67498;53.650;10.090;2023-08-07T06:46:24;100341.81;;;16.85
78225;BMP280;67498;53.650;10.090;2023-08-07T06:48:51;100348.81;;;16.88
78225;BMP280;67498;53.650;10.090;2023-08-07T06:51:17;100343.97;;;16.86
78225;BMP280;67498;53.650;10.090;2023-08-07T06:53:42;100350.72;;;16.87
78225;BMP280;67498;53.650;10.090;2023-08-07T06:56:07;100364.44;;;16.91
78225;BMP280;67498;53.650;10.090;2023-08-07T06:58:33;100349.13;;;16.90
78225;BMP280;67498;53.650;10.090;2023-08-07T07:00:58;100353.03;;;16.95
78225;BMP280;67498;53.650;10.090;2023-08-07T07:03:23;100352.97;;;17.04
78225;BMP280;67498;53.650;10.090;2023-08-07T07:05:49;100353.53;;;17.08
78225;BMP280;67498;53.650;10.090;2023-08-07T07:08:15;100351.94;;;17.01
78225;BMP280;67498;53.650;10.090;2023-08-07T07:10:40;100368.25;;;17.00
78225;BMP280;67498;53.650;10.090;2023-08-07T07:13:05;100362.47;;;17.01
78225;BMP280;67498;53.650;10.090;2023-08-07T07:15:33;100365.13;;;17.01
78225;BMP280;67498;53.650;10.090;2023-08-07T07:17:58;100356.56;;;17.15
78225;BMP280;67498;53.650;10.090;2023-08-07T07:20:24;100357.91;;;17.35
78225;BMP280;67498;53.650;10.090;2023-08-07T07:22:50;100366.28;;;17.48
78225;BMP280;67498;53.650;10.090;2023-08-07T07:25:15;100350.88;;;17.47
78225;BMP280;67498;53.650;10.090;2023-08-07T07:27:40;100354.63;;;17.40
78225;BMP280;67498;53.650;10.090;2023-08-07T07:30:06;100368.53;;;17.40
78225;BMP280;67498;53.650;10.090;2023-08-07T07:32:32;100371.22;;;17.31
78225;BMP280;67498;53.650;10.090;2023-08-07T07:34:57;100354.47;;;17.20
78225;BMP280;67498;53.650;10.090;2023-08-07T07:37:23;100373.84;;;17.16
78225;BMP280;67498;53.650;10.090;2023-08-07T07:39:48;100380.84;;;17.20
78225;BMP280;67498;53.650;10.090;2023-08-07T07:42:13;100374.44;;;17.21
78225;BMP280;67498;53.650;10.090;2023-08-07T07:44:38;100377.53;;;17.34
78225;BMP280;67498;53.650;10.090;2023-08-07T07:47:05;100366.63;;;17.41
78225;BMP280;67498;53.650;10.090;2023-08-07T07:49:32;100377.03;;;17.59
78225;BMP280;67498;53.650;10.090;2023-08-07T07:51:58;100356.91;;;17.77
78225;BMP280;67498;53.650;10.090;2023-08-07T07:54:23;100369.97;;;17.95
78225;BMP280;67498;53.650;10.090;2023-08-07T07:56:48;100370.22;;;17.97
78225;BMP280;67498;53.650;10.090;2023-08-07T07:59:14;100391.34;;;18.12
78225;BMP280;67498;53.650;10.090;2023-08-07T08:01:39;100375.50;;;18.12
78225;BMP280;67498;53.650;10.090;2023-08-07T08:04:05;100388.50;;;18.15
78225;BMP280;67498;53.650;10.090;2023-08-07T08:06:31;100382.16;;;18.07
78225;BMP280;67498;53.650;10.090;2023-08-07T08:08:57;100384.53;;;17.90
78225;BMP280;67498;53.650;10.090;2023-08-07T08:11:22;100396.09;;;17.78
78225;BMP280;67498;53.650;10.090;2023-08-07T08:13:47;100405.88;;;17.63
78225;BMP280;67498;53.650;10.090;2023-08-07T08:16:13;100423.69;;;17.38
78225;BMP280;67498;53.650;10.090;2023-08-07T08:18:38;100430.94;;;17.29
78225;BMP280;67498;53.650;10.090;2023-08-07T08:21:03;100413.75;;;17.09
78225;BMP280;67498;53.650;10.090;2023-08-07T08:23:28;100421.28;;;17.02
78225;BMP280;67498;53.650;10.090;2023-08-07T08:25:54;100409.09;;;17.04
78225;BMP280;67498;53.650;10.090;2023-08-07T08:28:19;100417.94;;;17.25
78225;BMP280;67498;53.650;10.090;2023-08-07T08:30:45;100426.72;;;17.46
78225;BMP280;67498;53.650;10.090;2023-08-07T08:33:10;100429.56;;;17.57
78225;BMP280;67498;53.650;10.090;2023-08-07T08:35:38;100424.72;;;17.56
78225;BMP280;67498;53.650;10.090;2023-08-07T08:38:03;100435.91;;;17.51
78225;BMP280;67498;53.650;10.090;2023-08-07T08:40:30;100431.44;;;17.42
78225;BMP280;67498;53.650;10.090;2023-08-07T08:42:55;100442.16;;;17.38
78225;BMP280;67498;53.650;10.090;2023-08-07T08:45:24;100439.41;;;17.33
78225;BMP280;67498;53.650;10.090;2023-08-07T08:47:51;100446.88;;;17.34
78225;BMP280;67498;53.650;10.090;2023-08-07T08:50:16;100453.50;;;17.30
78225;BMP280;67498;53.650;10.090;2023-08-07T08:52:43;100454.38;;;17.27
78225;BMP280;67498;53.650;10.090;2023-08-07T08:55:10;100459.19;;;17.13
78225;BMP280;67498;53.650;10.090;2023-08-07T08:57:37;100458.03;;;17.05
78225;BMP280;67498;53.650;10.090;2023-08-07T09:00:08;100476.81;;;16.98
78225;BMP280;67498;53.650;10.090;2023-08-07T09:02:46;100462.66;;;16.86
78225;BMP280;67498;53.650;10.090;2023-08-07T09:05:14;100456.25;;;16.78
78225;BMP280;67498;53.650;10.090;2023-08-07T09:07:39;100460.50;;;16.76
78225;BMP280;67498;53.650;10.090;2023-08-07T09:10:05;100470.44;;;16.81
78225;BMP280;67498;53.650;10.090;2023-08-07T09:12:32;100463.13;;;16.85
78225;BMP280;67498;53.650;10.090;2023-08-07T09:15:00;100464.84;;;16.88
78225;BMP280;67498;53.650;10.090;2023-08-07T09:17:33;100460.63;;;17.14
78225;BMP280;67498;53.650;10.090;2023-08-07T09:20:00;100432.19;;;17.57
78225;BMP280;67498;53.650;10.090;2023-08-07T09:22:25;100450.22;;;18.27
78225;BMP280;67498;53.650;10.090;2023-08-07T09:24:51;100447.84;;;18.79
78225;BMP280;67498;53.650;10.090;2023-08-07T09:27:16;100447.00;;;18.88
78225;BMP280;67498;53.650;10.090;2023-08-07T09:29:43;100431.38;;;18.69
78225;BMP280;67498;53.650;10.090;2023-08-07T09:32:09;100435.22;;;18.54
78225;BMP280;67498;53.650;10.090;2023-08-07T09:34:34;100465.53;;;18.38
78225;BMP280;67498;53.650;10.090;2023-08-07T09:36:59;100458.88;;;18.13
78225;BMP280;67498;53.650;10.090;2023-08-07T09:39:25;100466.69;;;17.92
78225;BMP280;67498;53.650;10.090;2023-08-07T09:41:51;100477.50;;;17.80
78225;BMP280;67498;53.650;10.090;2023-08-07T09:44:17;100476.22;;;17.75
78225;BMP280;67498;53.650;10.090;2023-08-07T09:46:43;100467.41;;;17.78
78225;BMP280;67498;53.650;10.090;2023-08-07T09:49:09;100475.25;;;17.87
78225;BMP280;67498;53.650;10.090;2023-08-07T09:51:47;100465.50;;;18.08
78225;BMP280;67498;53.650;10.090;2023-08-07T09:54:13;100450.75;;;18.31
78225;BMP280;67498;53.650;10.090;2023-08-07T09:56:39;100457.47;;;18.62
78225;BMP280;67498;53.650;10.090;2023-08-07T09:59:05;100465.47;;;19.03
78225;BMP280;67498;53.650;10.090;2023-08-07T10:01:31;100454.84;;;19.38
78225;BMP280;67498;53.650;10.090;2023-08-07T10:03:57;100457.41;;;19.53
78225;BMP280;67498;53.650;10.090;2023-08-07T10:06:23;100467.84;;;19.62
78225;BMP280;67498;53.650;10.090;2023-08-07T10:08:49;100481.81;;;19.62
78225;BMP280;67498;53.650;10.090;2023-08-07T10:11:15;100473.59;;;19.60
78225;BMP280;67498;53.650;10.090;2023-08-07T10:13:41;100469.78;;;19.41
78225;BMP280;67498;53.650;10.090;2023-08-07T10:16:07;100475.34;;;19.43
78225;BMP280;67498;53.650;10.090;2023-08-07T10:18:33;100479.13;;;19.36
78225;BMP280;67498;53.650;10.090;2023-08-07T10:21:00;100475.94;;;19.32
78225;BMP280;67498;53.650;10.090;2023-08-07T10:23:26;100489.84;;;19.27
78225;BMP280;67498;53.650;10.090;2023-08-07T10:25:51;100467.72;;;19.30
78225;BMP280;67498;53.650;10.090;2023-08-07T10:28:19;100470.66;;;19.53
78225;BMP280;67498;53.650;10.090;2023-08-07T10:30:45;100469.16;;;19.72
78225;BMP280;67498;53.650;10.090;2023-08-07T10:33:12;100456.22;;;19.80
78225;BMP280;67498;53.650;10.090;2023-08-07T10:35:44;100465.63;;;19.81
78225;BMP280;67498;53.650;10.090;2023-08-07T10:38:11;100472.84;;;19.80
78225;BMP280;67498;53.650;10.090;2023-08-07T10:41:12;100465.94;;;19.62
78225;BMP280;67498;53.650;10.090;2023-08-07T10:43:42;100472.16;;;19.39
78225;BMP280;67498;53.650;10.090;2023-08-07T10:46:11;100471.88;;;19.37
78225;BMP280;67498;53.650;10.090;2023-08-07T10:48:47;100474.81;;;19.39
78225;BMP280;67498;53.650;10.090;2023-08-07T10:51:18;100471.59;;;19.50
78225;BMP280;67498;53.650;10.090;2023-08-07T10:53:47;100468.56;;;19.42
78225;BMP280;67498;53.650;10.090;2023-08-07T10:56:17;100486.34;;;19.36
78225;BMP280;67498;53.650;10.090;2023-08-07T10:58:49;100483.78;;;19.21
78225;BMP280;67498;53.650;10.090;2023-08-07T11:04:05;100478.91;;;19.19
78225;BMP280;67498;53.650;10.090;2023-08-07T11:06:32;100491.97;;;19.43
78225;BMP280;67498;53.650;10.090;2023-08-07T11:09:01;100483.94;;;19.58
78225;BMP280;67498;53.650;10.090;2023-08-07T11:11:28;100490.66;;;19.80
78225;BMP280;67498;53.650;10.090;2023-08-07T11:13:53;100476.84;;;19.96
78225;BMP280;67498;53.650;10.090;2023-08-07T11:16:19;100462.75;;;20.10
78225;BMP280;67498;53.650;10.090;2023-08-07T11:18:46;100481.59;;;20.18
78225;BMP280;67498;53.650;10.090;2023-08-07T11:21:12;100503.09;;;20.25
78225;BMP280;67498;53.650;10.090;2023-08-07T11:23:38;100507.09;;;20.10
78225;BMP280;67498;53.650;10.090;2023-08-07T11:26:04;100500.97;;;19.78
78225;BMP280;67498;53.650;10.090;2023-08-07T11:28:29;100511.50;;;19.66
78225;BMP280;67498;53.650;10.090;2023-08-07T11:30:56;100521.59;;;19.68
78225;BMP280;67498;53.650;10.090;2023-08-07T11:33:23;100494.66;;;19.69
78225;BMP280;67498;53.650;10.090;2023-08-07T11:35:49;100487.22;;;19.73
78225;BMP280;67498;53.650;10.090;2023-08-07T11:38:32;100502.75;;;19.86
78225;BMP280;67498;53.650;10.090;2023-08-07T11:40:59;100507.88;;;19.90
78225;BMP280;67498;53.650;10.090;2023-08-07T11:43:30;100504.75;;;19.91
78225;BMP280;67498;53.650;10.090;2023-08-07T11:45:56;100493.16;;;19.89
78225;BMP280;67498;53.650;10.090;2023-08-07T11:48:31;100505.63;;;19.83
78225;BMP280;67498;53.650;10.090;2023-08-07T11:50:57;100510.41;;;19.79
78225;BMP280;67498;53.650;10.090;2023-08-07T11:53:24;100509.56;;;19.67
78225;BMP280;67498;53.650;10.090;2023-08-07T11:55:56;100501.41;;;19.70
78225;BMP280;67498;53.650;10.090;2023-08-07T11:58:24;100517.31;;;19.70
78225;BMP280;67498;53.650;10.090;2023-08-07T12:00:50;100532.75;;;19.72
78225;BMP280;67498;53.650;10.090;2023-08-07T12:03:29;100532.78;;;19.78
78225;BMP280;67498;53.650;10.090;2023-08-07T12:05:58;100524.25;;;19.68
78225;BMP280;67498;53.650;10.090;2023-08-07T12:08:37;100530.63;;;19.56
78225;BMP280;67498;53.650;10.090;2023-08-07T12:11:07;100527.38;;;19.46
78225;BMP280;67498;53.650;10.090;2023-08-07T12:13:37;100537.16;;;19.19
78225;BMP280;67498;53.650;10.090;2023-08-07T12:16:03;100556.91;;;19.04
78225;BMP280;67498;53.650;10.090;2023-08-07T12:18:30;100541.63;;;18.93
78225;BMP280;67498;53.650;10.090;2023-08-07T12:21:07;100536.22;;;19.02
78225;BMP280;67498;53.650;10.090;2023-08-07T12:23:33;100543.28;;;19.11
78225;BMP280;67498;53.650;10.090;2023-08-07T12:25:59;100548.22;;;19.18
78225;BMP280;67498;53.650;10.090;2023-08-07T12:28:25;100552.72;;;19.12
78225;BMP280;67498;53.650;10.090;2023-08-07T12:30:51;100540.13;;;19.07
78225;BMP280;67498;53.650;10.090;2023-08-07T12:33:16;100543.75;;;19.09
78225;BMP280;67498;53.650;10.090;2023-08-07T12:35:42;100555.72;;;19.05
78225;BMP280;67498;53.650;10.090;2023-08-07T12:38:08;100556.28;;;18.94
78225;BMP280;67498;53.650;10.090;2023-08-07T12:40:34;100569.47;;;18.74
78225;BMP280;67498;53.650;10.090;2023-08-07T12:43:02;100547.50;;;18.53
78225;BMP280;67498;53.650;10.090;2023-08-07T12:45:27;100553.03;;;18.55
78225;BMP280;67498;53.650;10.090;2023-08-07T12:47:52;100547.56;;;18.58
78225;BMP280;67498;53.650;10.090;2023-08-07T12:50:18;100542.47;;;18.69
78225;BMP280;67498;53.650;10.090;2023-08-07T12:52:43;100571.25;;;18.82
78225;BMP280;67498;53.650;10.090;2023-08-07T12:55:09;100555.50;;;18.88
78225;BMP280;67498;53.650;10.090;2023-08-07T12:57:35;100551.88;;;19.06
78225;BMP280;67498;53.650;10.090;2023-08-07T13:00:00;100572.78;;;19.04
78225;BMP280;67498;53.650;10.090;2023-08-07T13:02:25;100552.19;;;18.93
78225;BMP280;67498;53.650;10.090;2023-08-07T13:04:51;100549.66;;;18.84
78225;BMP280;67498;53.650;10.090;2023-08-07T13:07:19;100560.78;;;18.88
78225;BMP280;67498;53.650;10.090;2023-08-07T13:09:45;100564.88;;;18.89
78225;BMP280;67498;53.650;10.090;2023-08-07T13:12:10;100564.88;;;18.89
78225;BMP280;67498;53.650;10.090;2023-08-07T13:14:35;100560.50;;;18.86
78225;BMP280;67498;53.650;10.090;2023-08-07T13:17:00;100574.31;;;18.90
78225;BMP280;67498;53.650;10.090;2023-08-07T13:19:26;100567.25;;;18.87
78225;BMP280;67498;53.650;10.090;2023-08-07T13:21:51;100575.94;;;18.87
78225;BMP280;67498;53.650;10.090;2023-08-07T13:24:16;100577.94;;;18.92
78225;BMP280;67498;53.650;10.090;2023-08-07T13:26:42;100565.50;;;18.99
78225;BMP280;67498;53.650;10.090;2023-08-07T13:29:11;100573.03;;;19.20
78225;BMP280;67498;53.650;10.090;2023-08-07T13:31:36;100567.34;;;19.28
78225;BMP280;67498;53.650;10.090;2023-08-07T13:34:01;100576.38;;;19.36
78225;BMP280;67498;53.650;10.090;2023-08-07T13:36:36;100562.13;;;19.33
78225;BMP280;67498;53.650;10.090;2023-08-07T13:39:01;100567.00;;;19.20
78225;BMP280;67498;53.650;10.090;2023-08-07T13:41:27;100589.13;;;19.17
78225;BMP280;67498;53.650;10.090;2023-08-07T13:43:52;100585.19;;;19.12
78225;BMP280;67498;53.650;10.090;2023-08-07T13:46:17;100585.00;;;19.01
78225;BMP280;67498;53.650;10.090;2023-08-07T13:48:44;100598.00;;;18.84
78225;BMP280;67498;53.650;10.090;2023-08-07T13:51:09;100591.44;;;18.65